createdAt,value
2019-06-26T00:00:41.193Z,99.90
2019-06-26T00:03:09.621Z,99.90
2019-06-26T00:05:38.061Z,99.90
2019-06-26T00:08:06.642Z,99.90
2019-06-26T00:10:35.161Z,99.90
2019-06-26T00:13:03.597Z,99.90
2019-06-26T00:15:32.038Z,99.90
2019-06-26T00:18:00.548Z,99.90
2019-06-26T00:20:28.985Z,99.90
2019-06-26T00:22:57.417Z,99.90
2019-06-26T00:25:25.860Z,99.90
2019-06-26T00:27:54.293Z,99.90
2019-06-26T00:30:22.732Z,99.90
2019-06-26T00:32:51.175Z,99.90
2019-06-26T00:35:19.612Z,99.90
2019-06-26T00:37:48.046Z,99.90
2019-06-26T00:40:18.020Z,99.90
2019-06-26T00:42:46.717Z,99.90
2019-06-26T00:45:15.153Z,99.90
2019-06-26T00:47:43.583Z,99.90
2019-06-26T00:50:12.858Z,99.90
2019-06-26T00:52:41.292Z,99.90
2019-06-26T00:55:10.575Z,99.90
2019-06-26T00:57:39.083Z,99.90
2019-06-26T01:00:09.628Z,99.90
2019-06-26T01:02:38.197Z,99.90
2019-06-26T01:05:09.828Z,99.90
2019-06-26T01:07:38.603Z,99.90
2019-06-26T01:10:08.489Z,99.90
2019-06-26T01:12:36.924Z,99.90
2019-06-26T01:15:06.994Z,99.90
2019-06-26T01:17:35.508Z,99.90
2019-06-26T01:20:06.636Z,99.90
2019-06-26T01:22:35.163Z,99.90
2019-06-26T01:25:04.330Z,99.90
2019-06-26T01:27:32.769Z,99.90
2019-06-26T01:30:01.303Z,99.90
2019-06-26T01:32:29.757Z,99.90
2019-06-26T01:34:58.184Z,99.90
2019-06-26T01:37:26.630Z,99.90
2019-06-26T01:39:55.062Z,99.90
2019-06-26T01:42:23.582Z,99.90
2019-06-26T01:44:52.006Z,99.90
2019-06-26T01:47:20.444Z,99.90
2019-06-26T01:49:48.872Z,99.90
2019-06-26T01:52:17.350Z,99.90
2019-06-26T01:54:45.827Z,99.90
2019-06-26T01:57:14.268Z,99.90
2019-06-26T01:59:42.698Z,99.90
2019-06-26T02:02:11.138Z,99.90
2019-06-26T02:04:39.571Z,99.90
2019-06-26T02:07:08.025Z,99.90
2019-06-26T02:09:36.449Z,99.90
2019-06-26T02:12:04.897Z,99.90
2019-06-26T02:14:33.321Z,99.90
2019-06-26T02:17:01.773Z,99.90
2019-06-26T02:19:30.201Z,99.90
2019-06-26T02:21:58.644Z,99.90
2019-06-26T02:24:27.074Z,99.90
2019-06-26T02:26:55.518Z,99.90
2019-06-26T02:29:23.965Z,99.90
2019-06-26T02:31:52.407Z,99.90
2019-06-26T02:34:20.907Z,99.90
2019-06-26T02:36:49.345Z,99.90
2019-06-26T02:39:17.784Z,99.90
2019-06-26T02:41:46.227Z,99.90
2019-06-26T02:44:14.813Z,99.90
2019-06-26T02:46:43.325Z,99.90
2019-06-26T02:49:11.845Z,99.90
2019-06-26T02:51:40.275Z,99.90
2019-06-26T02:54:08.705Z,99.90
2019-06-26T02:56:37.143Z,99.90
2019-06-26T02:59:05.919Z,99.90
2019-06-26T03:01:34.406Z,99.90
2019-06-26T03:04:02.868Z,99.90
2019-06-26T03:06:31.304Z,99.90
2019-06-26T03:08:59.745Z,99.90
2019-06-26T03:11:28.177Z,99.90
2019-06-26T03:13:56.627Z,99.90
2019-06-26T03:16:25.063Z,99.90
2019-06-26T03:18:53.549Z,99.90
2019-06-26T03:21:21.985Z,99.90
2019-06-26T03:23:50.439Z,99.90
2019-06-26T03:26:18.860Z,99.90
2019-06-26T03:28:47.307Z,99.90
2019-06-26T03:31:15.735Z,99.90
2019-06-26T03:33:44.182Z,99.90
2019-06-26T03:36:12.623Z,99.90
2019-06-26T03:38:41.064Z,99.90
2019-06-26T03:41:09.514Z,99.90
2019-06-26T03:43:37.954Z,99.90
2019-06-26T03:46:06.388Z,99.90
2019-06-26T03:48:34.813Z,99.90
2019-06-26T03:51:03.259Z,99.90
2019-06-26T03:53:31.693Z,99.90
2019-06-26T03:56:00.137Z,99.90
2019-06-26T03:58:28.573Z,99.90
2019-06-26T04:00:57.008Z,99.90
2019-06-26T04:03:25.453Z,99.90
2019-06-26T04:05:53.882Z,99.90
2019-06-26T04:08:22.413Z,99.90
2019-06-26T04:10:50.862Z,99.90
2019-06-26T04:13:19.292Z,99.90
2019-06-26T04:15:50.776Z,99.90
2019-06-26T04:18:17.877Z,99.90
2019-06-26T04:20:46.314Z,99.90
2019-06-26T04:23:14.750Z,99.90
2019-06-26T04:25:43.241Z,99.90
2019-06-26T04:28:11.680Z,99.90
2019-06-26T04:30:40.161Z,99.90
2019-06-26T04:33:08.577Z,99.90
2019-06-26T04:35:37.301Z,99.90
2019-06-26T04:38:05.724Z,99.90
2019-06-26T04:40:34.204Z,99.90
2019-06-26T04:43:02.676Z,99.90
2019-06-26T04:45:31.120Z,99.90
2019-06-26T04:47:59.548Z,99.90
2019-06-26T04:50:27.972Z,99.90
2019-06-26T04:52:56.419Z,99.90
2019-06-26T04:55:24.840Z,99.90
2019-06-26T04:57:53.278Z,99.90
2019-06-26T05:00:22.166Z,99.90
2019-06-26T05:02:50.655Z,99.90
2019-06-26T05:05:19.324Z,99.90
2019-06-26T05:07:47.764Z,99.90
2019-06-26T05:10:16.362Z,99.90
2019-06-26T05:12:44.796Z,99.90
2019-06-26T05:15:14.069Z,99.90
2019-06-26T05:17:42.502Z,99.90
2019-06-26T05:20:11.671Z,99.90
2019-06-26T05:22:40.104Z,99.90
2019-06-26T05:25:09.478Z,99.90
2019-06-26T05:27:38.044Z,99.90
2019-06-26T05:30:07.930Z,99.90
2019-06-26T05:32:36.365Z,99.90
2019-06-26T05:35:06.928Z,99.90
2019-06-26T05:37:35.380Z,99.90
2019-06-26T05:40:06.890Z,99.90
2019-06-26T05:42:35.445Z,99.90
2019-06-26T05:45:04.536Z,99.90
2019-06-26T05:47:32.977Z,99.90
2019-06-26T05:50:01.417Z,99.90
2019-06-26T05:52:29.915Z,99.90
2019-06-26T05:54:58.350Z,99.90
2019-06-26T05:57:26.789Z,99.90
2019-06-26T05:59:55.219Z,99.90
2019-06-26T06:02:23.694Z,99.90
2019-06-26T06:04:52.158Z,99.90
2019-06-26T06:07:20.604Z,99.90
2019-06-26T06:09:49.026Z,99.90
2019-06-26T06:12:17.469Z,99.90
2019-06-26T06:14:45.932Z,99.90
2019-06-26T06:17:14.361Z,99.90
2019-06-26T06:19:42.793Z,99.90
2019-06-26T06:22:11.220Z,99.90
2019-06-26T06:24:39.657Z,99.90
2019-06-26T06:27:08.088Z,99.90
2019-06-26T06:29:36.521Z,99.90
2019-06-26T06:32:04.941Z,99.90
2019-06-26T06:34:33.381Z,99.90
2019-06-26T06:37:01.798Z,99.90
2019-06-26T06:39:30.229Z,99.90
2019-06-26T06:41:59.592Z,99.90
2019-06-26T06:44:28.172Z,99.90
2019-06-26T06:47:04.044Z,99.90
2019-06-26T06:49:26.764Z,99.90
2019-06-26T06:51:55.195Z,99.90
2019-06-26T06:54:23.625Z,99.90
2019-06-26T06:56:52.061Z,99.90
2019-06-26T06:59:20.764Z,99.90
2019-06-26T07:01:49.189Z,99.90
2019-06-26T07:04:17.899Z,99.90
2019-06-26T07:06:46.320Z,99.90
2019-06-26T07:09:14.769Z,99.90
2019-06-26T07:11:43.266Z,99.90
2019-06-26T07:14:11.760Z,99.90
2019-06-26T07:16:40.676Z,99.90
2019-06-26T07:19:09.134Z,99.90
2019-06-26T07:21:37.561Z,99.90
2019-06-26T07:24:06.056Z,99.90
2019-06-26T07:26:34.491Z,99.90
2019-06-26T07:29:02.913Z,99.90
2019-06-26T07:31:31.348Z,99.90
2019-06-26T07:33:59.764Z,99.90
2019-06-26T07:36:28.196Z,99.90
2019-06-26T07:38:56.641Z,99.90
2019-06-26T07:41:25.078Z,99.90
2019-06-26T07:43:53.492Z,99.90
2019-06-26T07:46:21.943Z,99.90
2019-06-26T07:48:50.352Z,99.90
2019-06-26T07:51:18.786Z,99.90
2019-06-26T07:53:47.216Z,99.90
2019-06-26T07:56:15.688Z,99.90
2019-06-26T07:58:44.455Z,99.90
2019-06-26T08:01:12.884Z,99.90
2019-06-26T08:03:41.625Z,99.90
2019-06-26T08:06:10.046Z,99.90
2019-06-26T08:08:38.492Z,99.90
2019-06-26T08:11:06.973Z,99.90
2019-06-26T08:13:35.404Z,99.90
2019-06-26T08:16:03.892Z,99.90
2019-06-26T08:18:32.327Z,99.90
2019-06-26T08:21:11.951Z,99.90
2019-06-26T08:23:30.984Z,99.90
2019-06-26T08:25:59.406Z,99.90
2019-06-26T08:28:27.843Z,99.90
2019-06-26T08:30:56.280Z,99.90
2019-06-26T08:33:24.730Z,99.90
2019-06-26T08:35:53.144Z,99.90
2019-06-26T08:38:21.575Z,99.90
2019-06-26T08:40:50.001Z,99.90
2019-06-26T08:43:18.501Z,99.90
2019-06-26T08:45:46.929Z,99.90
2019-06-26T08:48:23.226Z,99.90
2019-06-26T08:50:45.520Z,99.90
2019-06-26T08:53:13.949Z,99.90
2019-06-26T08:55:42.392Z,99.90
2019-06-26T08:58:10.825Z,99.90
2019-06-26T09:00:39.256Z,99.90
2019-06-26T09:03:07.736Z,99.90
2019-06-26T09:05:47.403Z,99.90
2019-06-26T09:08:06.334Z,99.90
2019-06-26T09:10:34.840Z,99.90
2019-06-26T09:13:03.268Z,99.90
2019-06-26T09:15:31.717Z,99.90
2019-06-26T09:18:00.842Z,99.90
2019-06-26T09:20:32.419Z,99.90
2019-06-26T09:23:01.160Z,99.90
2019-06-26T09:25:29.657Z,99.90
2019-06-26T09:27:58.146Z,99.90
2019-06-26T09:30:26.588Z,99.90
2019-06-26T09:32:55.028Z,99.90
2019-06-26T09:35:23.457Z,99.90
2019-06-26T09:37:51.885Z,99.90
2019-06-26T09:40:20.700Z,99.90
2019-06-26T09:42:49.369Z,99.90
2019-06-26T09:45:18.741Z,99.90
2019-06-26T09:47:47.176Z,99.90
2019-06-26T09:50:16.143Z,99.90
2019-06-26T09:52:44.568Z,99.90
2019-06-26T09:55:13.141Z,99.90
2019-06-26T09:57:41.559Z,99.90
2019-06-26T10:00:12.012Z,99.90
2019-06-26T10:02:40.508Z,99.90
2019-06-26T10:05:09.284Z,99.90
2019-06-26T10:07:37.714Z,99.90
2019-06-26T10:10:07.190Z,99.90
2019-06-26T10:12:35.626Z,99.90
2019-06-26T10:15:06.957Z,99.90
2019-06-26T10:17:35.468Z,99.90
2019-06-26T10:20:06.429Z,99.90
2019-06-26T10:22:34.870Z,99.90
2019-06-26T10:25:03.841Z,99.90
2019-06-26T10:27:32.287Z,99.90
2019-06-26T10:30:00.766Z,99.90
2019-06-26T10:32:29.201Z,99.90
2019-06-26T10:34:57.633Z,99.90
2019-06-26T10:37:26.069Z,99.90
2019-06-26T10:39:54.564Z,99.90
2019-06-26T10:42:23.068Z,99.90
2019-06-26T10:44:51.492Z,99.90
2019-06-26T10:47:19.929Z,99.90
2019-06-26T10:49:48.349Z,99.90
2019-06-26T10:52:16.798Z,99.90
2019-06-26T10:54:45.212Z,99.90
2019-06-26T10:57:13.651Z,99.90
2019-06-26T10:59:42.135Z,99.90
2019-06-26T11:02:10.588Z,99.90
2019-06-26T11:04:39.012Z,99.90
2019-06-26T11:07:07.457Z,99.90
2019-06-26T11:09:35.994Z,99.90
2019-06-26T11:12:04.428Z,99.50
2019-06-26T11:14:32.858Z,99.90
2019-06-26T11:17:01.302Z,99.90
2019-06-26T11:19:43.253Z,99.10
2019-06-26T11:22:00.010Z,99.90
2019-06-26T11:24:28.428Z,99.90
2019-06-26T11:26:56.864Z,99.90
2019-06-26T11:29:25.312Z,99.50
2019-06-26T11:31:53.756Z,99.40
2019-06-26T11:34:22.175Z,99.90
2019-06-26T11:37:03.076Z,99.80
2019-06-26T11:39:20.828Z,99.90
2019-06-26T11:41:49.333Z,99.90
2019-06-26T11:44:17.766Z,99.80
2019-06-26T11:46:46.265Z,99.90
2019-06-26T11:49:14.766Z,99.70
2019-06-26T11:51:43.545Z,99.90
2019-06-26T11:54:11.976Z,99.90
2019-06-26T11:56:40.431Z,99.90
2019-06-26T11:59:08.860Z,99.90
2019-06-26T12:01:37.284Z,99.70
2019-06-26T12:04:06.160Z,99.70
2019-06-26T12:06:34.587Z,99.80
2019-06-26T12:09:03.682Z,99.20
2019-06-26T12:11:32.104Z,99.60
2019-06-26T12:14:00.544Z,99.90
2019-06-26T12:16:28.978Z,99.30
2019-06-26T12:18:57.478Z,99.30
2019-06-26T12:21:25.901Z,99.90
2019-06-26T12:23:54.412Z,98.70
2019-06-26T12:26:22.841Z,98.00
2019-06-26T12:28:51.341Z,98.40
2019-06-26T12:31:19.764Z,98.00
2019-06-26T12:33:48.206Z,99.10
2019-06-26T12:36:16.772Z,98.70
2019-06-26T12:38:45.205Z,98.90
2019-06-26T12:41:13.628Z,99.10
2019-06-26T12:43:42.078Z,98.30
2019-06-26T12:46:10.568Z,99.30
2019-06-26T12:48:39.022Z,99.20
2019-06-26T12:51:07.482Z,98.90
2019-06-26T12:53:35.908Z,99.10
2019-06-26T12:56:04.339Z,99.10
2019-06-26T12:58:32.791Z,99.20
2019-06-26T13:01:01.226Z,98.70
2019-06-26T13:03:29.717Z,99.00
2019-06-26T13:05:58.156Z,98.90
2019-06-26T13:08:26.574Z,99.50
2019-06-26T13:10:55.010Z,98.70
2019-06-26T13:13:33.025Z,98.50
2019-06-26T13:16:03.345Z,98.90
2019-06-26T13:18:31.843Z,98.50
2019-06-26T13:21:00.304Z,98.30
2019-06-26T13:23:28.774Z,98.50
2019-06-26T13:25:57.280Z,97.60
2019-06-26T13:28:25.708Z,98.60
2019-06-26T13:30:54.137Z,98.50
2019-06-26T13:33:22.564Z,98.00
2019-06-26T13:35:51.005Z,99.00
2019-06-26T13:38:19.492Z,98.70
2019-06-26T13:40:47.965Z,99.30
2019-06-26T13:43:16.530Z,98.50
2019-06-26T13:45:44.981Z,98.70
2019-06-26T13:48:13.443Z,98.70
2019-06-26T13:50:42.137Z,99.10
2019-06-26T13:53:10.549Z,99.10
2019-06-26T13:55:39.027Z,99.70
2019-06-26T13:58:07.493Z,99.00
2019-06-26T14:00:35.997Z,99.10
2019-06-26T14:03:08.366Z,99.70
2019-06-26T14:05:36.886Z,99.90
2019-06-26T14:08:05.360Z,99.90
2019-06-26T14:10:34.064Z,99.90
2019-06-26T14:13:02.492Z,99.90
2019-06-26T14:15:30.920Z,99.90
2019-06-26T14:17:59.352Z,99.90
2019-06-26T14:20:27.812Z,99.90
2019-06-26T14:22:56.322Z,99.90
2019-06-26T14:25:24.751Z,99.90
2019-06-26T14:27:53.181Z,99.90
2019-06-26T14:30:22.146Z,99.90
2019-06-26T14:32:50.600Z,99.90
2019-06-26T14:35:19.092Z,99.90
2019-06-26T14:37:47.517Z,99.90
2019-06-26T14:40:16.109Z,99.90
2019-06-26T14:42:44.614Z,99.90
2019-06-26T14:45:13.269Z,99.90
2019-06-26T14:47:41.702Z,99.90
2019-06-26T14:50:11.264Z,99.90
2019-06-26T14:52:41.887Z,99.90
2019-06-26T14:55:11.390Z,99.90
2019-06-26T14:57:39.829Z,99.90
2019-06-26T15:00:09.351Z,99.90
2019-06-26T15:02:37.844Z,99.90
2019-06-26T15:05:06.908Z,99.90
2019-06-26T15:07:35.562Z,99.90
2019-06-26T15:10:08.534Z,99.90
2019-06-26T15:12:36.976Z,99.90
2019-06-26T15:15:06.557Z,99.90
2019-06-26T15:17:35.050Z,99.90
2019-06-26T15:20:04.597Z,99.90
2019-06-26T15:22:33.089Z,99.90
2019-06-26T15:25:01.594Z,99.90
2019-06-26T15:27:30.129Z,99.90
2019-06-26T15:29:58.558Z,99.90
2019-06-26T15:32:27.012Z,99.90
2019-06-26T15:34:55.425Z,99.90
2019-06-26T15:37:24.440Z,99.90
2019-06-26T15:39:52.863Z,99.90
2019-06-26T15:42:21.287Z,99.90
2019-06-26T15:44:49.729Z,99.90
2019-06-26T15:47:18.150Z,99.90
2019-06-26T15:49:46.601Z,99.90
2019-06-26T15:52:15.688Z,99.90
2019-06-26T15:54:44.348Z,99.90
2019-06-26T15:57:12.775Z,99.90
2019-06-26T15:59:41.217Z,99.90
2019-06-26T16:02:09.645Z,99.90
2019-06-26T16:04:38.217Z,99.90
2019-06-26T16:07:06.754Z,99.90
2019-06-26T16:09:35.187Z,99.90
2019-06-26T16:12:03.641Z,99.90
2019-06-26T16:14:32.076Z,99.90
2019-06-26T16:17:02.231Z,99.90
2019-06-26T16:19:30.724Z,99.90
2019-06-26T16:21:59.157Z,99.90
2019-06-26T16:24:30.116Z,99.90
2019-06-26T16:26:57.748Z,99.90
2019-06-26T16:29:26.177Z,99.90
2019-06-26T16:31:54.680Z,99.90
2019-06-26T16:34:23.229Z,99.90
2019-06-26T16:36:51.652Z,99.90
2019-06-26T16:39:21.733Z,99.90
2019-06-26T16:41:50.184Z,99.90
2019-06-26T16:44:18.617Z,99.90
2019-06-26T16:46:47.053Z,99.90
2019-06-26T16:49:15.488Z,99.90
2019-06-26T16:51:43.952Z,99.90
2019-06-26T16:54:12.431Z,99.90
2019-06-26T16:56:40.860Z,99.90
2019-06-26T16:59:09.301Z,99.90
2019-06-26T17:01:57.117Z,99.90
2019-06-26T17:04:25.622Z,99.90
2019-06-26T17:06:54.078Z,99.90
2019-06-26T17:09:22.617Z,99.90
2019-06-26T17:11:51.076Z,99.90
2019-06-26T17:14:19.536Z,99.90
2019-06-26T17:16:48.056Z,99.90
2019-06-26T17:19:16.630Z,99.90
2019-06-26T17:21:45.094Z,99.90
2019-06-26T17:24:13.533Z,99.90
2019-06-26T17:26:42.070Z,99.90
2019-06-26T17:29:10.560Z,99.90
2019-06-26T17:31:39.062Z,99.90
2019-06-26T17:34:07.507Z,99.90
2019-06-26T17:36:35.975Z,99.90
2019-06-26T17:39:06.699Z,99.90
2019-06-26T17:41:35.148Z,99.90
2019-06-26T17:44:03.662Z,99.90
2019-06-26T17:46:32.173Z,99.90
2019-06-26T17:49:00.615Z,99.90
2019-06-26T17:51:29.158Z,99.90
2019-06-26T17:53:57.600Z,99.90
2019-06-26T17:56:26.044Z,99.90
2019-06-26T17:58:54.498Z,99.90
2019-06-26T18:01:22.979Z,99.90
2019-06-26T18:03:51.467Z,99.90
2019-06-26T18:06:19.918Z,99.90
2019-06-26T18:08:48.418Z,99.90
2019-06-26T18:11:17.007Z,99.90
2019-06-26T18:13:45.445Z,99.90
2019-06-26T18:16:13.900Z,99.90
2019-06-26T18:18:42.431Z,99.90
2019-06-26T18:21:10.919Z,99.90
2019-06-26T18:23:39.483Z,99.90
2019-06-26T18:26:13.453Z,99.90
2019-06-26T18:28:38.230Z,99.90
2019-06-26T18:31:06.745Z,99.90
2019-06-26T18:33:35.284Z,99.90
2019-06-26T18:36:03.957Z,99.90
2019-06-26T18:38:32.414Z,99.90
2019-06-26T18:41:00.912Z,99.90
2019-06-26T18:43:29.503Z,99.90
2019-06-26T18:45:57.953Z,99.90
2019-06-26T18:48:26.404Z,99.90
2019-06-26T18:50:54.867Z,99.90
2019-06-26T18:53:23.337Z,99.90
2019-06-26T18:55:51.775Z,99.90
2019-06-26T18:58:20.235Z,99.90
2019-06-26T19:00:48.682Z,99.90
2019-06-26T19:03:17.145Z,99.90
2019-06-26T19:05:45.647Z,99.90
2019-06-26T19:08:14.162Z,99.90
2019-06-26T19:10:43.240Z,99.90
2019-06-26T19:13:11.732Z,99.90
2019-06-26T19:15:40.175Z,99.90
2019-06-26T19:18:08.645Z,99.90
2019-06-26T19:20:37.158Z,99.90
2019-06-26T19:23:05.616Z,99.90
2019-06-26T19:25:34.136Z,99.90
2019-06-26T19:28:02.600Z,99.90
2019-06-26T19:30:31.152Z,99.90
2019-06-26T19:32:59.606Z,99.90
2019-06-26T19:35:28.048Z,99.90
2019-06-26T19:37:56.490Z,99.90
2019-06-26T19:40:24.946Z,99.90
2019-06-26T19:42:53.410Z,99.90
2019-06-26T19:45:22.892Z,99.90
2019-06-26T19:47:51.455Z,99.90
2019-06-26T19:50:23.418Z,99.90
2019-06-26T19:52:50.866Z,99.90
2019-06-26T19:55:40.199Z,99.90
2019-06-26T19:58:08.650Z,99.90
2019-06-26T20:00:37.099Z,99.90
2019-06-26T20:03:05.554Z,99.90
2019-06-26T20:05:33.996Z,99.90
2019-06-26T20:08:02.563Z,99.90
2019-06-26T20:10:31.067Z,99.90
2019-06-26T20:12:59.604Z,99.90
2019-06-26T20:15:28.043Z,99.90
2019-06-26T20:17:56.495Z,99.90
2019-06-26T20:20:24.962Z,99.90
2019-06-26T20:22:53.472Z,99.90
2019-06-26T20:25:22.027Z,99.90
2019-06-26T20:27:56.644Z,99.90
2019-06-26T20:30:23.885Z,99.90
2019-06-26T20:32:52.401Z,99.90
2019-06-26T20:35:21.061Z,99.90
2019-06-26T20:37:49.514Z,99.90
2019-06-26T20:40:18.237Z,99.90
2019-06-26T20:42:46.778Z,99.90
2019-06-26T20:45:15.547Z,99.90
2019-06-26T20:47:44.073Z,99.90
2019-06-26T20:50:12.959Z,99.90
2019-06-26T20:52:41.813Z,99.90
2019-06-26T20:55:10.322Z,99.90
2019-06-26T20:57:38.764Z,99.90
2019-06-26T21:00:08.752Z,99.90
2019-06-26T21:02:37.359Z,99.90
2019-06-26T21:05:06.725Z,99.90
2019-06-26T21:07:35.188Z,99.90
2019-06-26T21:10:04.763Z,99.90
2019-06-26T21:12:33.286Z,99.90
2019-06-26T21:15:01.756Z,99.90
2019-06-26T21:17:30.388Z,99.90
2019-06-26T21:19:58.924Z,99.90
2019-06-26T21:22:27.363Z,99.90
2019-06-26T21:24:55.824Z,99.90
2019-06-26T21:27:24.266Z,99.90
2019-06-26T21:29:52.755Z,99.90
2019-06-26T21:32:21.198Z,99.90
2019-06-26T21:34:49.643Z,99.90
2019-06-26T21:37:18.103Z,99.90
2019-06-26T21:39:46.552Z,99.90
2019-06-26T21:42:15.071Z,99.90
2019-06-26T21:44:43.516Z,99.90
2019-06-26T21:47:11.971Z,99.90
2019-06-26T21:49:40.425Z,99.90
2019-06-26T21:52:08.899Z,99.90
2019-06-26T21:54:37.570Z,99.90
2019-06-26T21:57:09.130Z,99.90
2019-06-26T21:59:36.242Z,99.90
2019-06-26T22:02:04.802Z,99.90
2019-06-26T22:04:33.589Z,99.90
2019-06-26T22:07:02.195Z,99.90
2019-06-26T22:09:30.650Z,99.90
2019-06-26T22:12:00.841Z,99.90
2019-06-26T22:14:29.482Z,99.90
2019-06-26T22:16:57.943Z,99.90
2019-06-26T22:19:26.569Z,99.90
2019-06-26T22:21:55.016Z,99.90
2019-06-26T22:24:23.453Z,99.90
2019-06-26T22:26:52.003Z,99.90
2019-06-26T22:29:20.462Z,99.90
2019-06-26T22:31:48.995Z,99.90
2019-06-26T22:34:17.440Z,99.90
2019-06-26T22:36:51.728Z,99.90
2019-06-26T22:39:16.499Z,99.90
2019-06-26T22:41:44.942Z,99.90
2019-06-26T22:44:13.388Z,99.90
2019-06-26T22:46:41.835Z,99.90
2019-06-26T22:49:10.292Z,99.90
2019-06-26T22:51:38.731Z,99.90
2019-06-26T22:54:07.192Z,99.90
2019-06-26T22:56:35.632Z,99.90
2019-06-26T22:59:04.130Z,99.90
2019-06-26T23:01:32.620Z,99.90
2019-06-26T23:04:01.088Z,99.90
2019-06-26T23:06:29.538Z,99.90
2019-06-26T23:08:57.987Z,99.90
2019-06-26T23:11:26.440Z,99.90
2019-06-26T23:13:54.888Z,99.90
2019-06-26T23:16:23.337Z,99.90
2019-06-26T23:18:51.785Z,99.90
2019-06-26T23:21:20.226Z,99.90
2019-06-26T23:23:48.683Z,99.90
2019-06-26T23:26:23.895Z,99.90
2019-06-26T23:28:47.344Z,99.90
2019-06-26T23:31:15.780Z,99.90
2019-06-26T23:33:44.246Z,99.90
2019-06-26T23:36:12.693Z,99.90
2019-06-26T23:38:41.138Z,99.90
2019-06-26T23:41:09.652Z,99.90
2019-06-26T23:43:38.107Z,99.90
2019-06-26T23:46:06.553Z,99.90
2019-06-26T23:48:35.003Z,99.90
2019-06-26T23:51:03.446Z,99.90
2019-06-26T23:53:31.899Z,99.90
2019-06-26T23:56:19.687Z,99.90
2019-06-26T23:58:48.236Z,99.90
